createdAt,value
2018-03-20T00:00:21.252Z,6.47
2018-03-20T00:00:54.935Z,6.60
2018-03-20T00:01:28.623Z,6.95
2018-03-20T00:02:05.542Z,7.35
2018-03-20T00:02:39.980Z,6.22
2018-03-20T00:03:13.649Z,6.72
2018-03-20T00:03:48.089Z,6.35
2018-03-20T00:04:21.762Z,6.45
2018-03-20T00:04:55.436Z,7.22
2018-03-20T00:05:29.881Z,6.85
2018-03-20T00:06:03.557Z,6.80
2018-03-20T00:06:37.257Z,6.12
2018-03-20T00:07:10.946Z,6.47
2018-03-20T00:07:44.612Z,5.68
2018-03-20T00:08:18.291Z,7.05
2018-03-20T00:08:52.714Z,6.45
2018-03-20T00:09:26.377Z,7.40
2018-03-20T00:10:00.821Z,7.18
2018-03-20T00:10:34.501Z,5.97
2018-03-20T00:11:08.175Z,7.20
2018-03-20T00:11:42.633Z,6.50
2018-03-20T00:12:16.361Z,6.50
2018-03-20T00:12:50.797Z,6.12
2018-03-20T00:13:24.459Z,6.15
2018-03-20T00:13:58.913Z,6.75
2018-03-20T00:14:32.762Z,7.60
2018-03-20T00:15:07.208Z,6.53
2018-03-20T00:15:40.869Z,5.70
2018-03-20T00:16:15.323Z,6.30
2018-03-20T00:16:48.986Z,5.95
2018-03-20T00:17:22.677Z,6.07
2018-03-20T00:17:56.344Z,6.03
2018-03-20T00:18:30.775Z,6.30
2018-03-20T00:19:04.445Z,6.68
2018-03-20T00:19:38.116Z,6.78
2018-03-20T00:20:11.803Z,7.05
2018-03-20T00:20:45.472Z,6.93
2018-03-20T00:21:19.154Z,6.85
2018-03-20T00:21:52.851Z,7.12
2018-03-20T00:22:26.539Z,6.57
2018-03-20T00:23:00.243Z,6.15
2018-03-20T00:23:33.913Z,6.47
2018-03-20T00:24:07.597Z,7.65
2018-03-20T00:24:41.261Z,6.75
2018-03-20T00:25:14.947Z,6.65
2018-03-20T00:25:48.613Z,6.53
2018-03-20T00:26:23.075Z,6.95
2018-03-20T00:26:56.751Z,7.22
2018-03-20T00:27:30.414Z,6.18
2018-03-20T00:28:04.091Z,6.55
2018-03-20T00:28:38.528Z,6.07
2018-03-20T00:29:12.210Z,6.30
2018-03-20T00:29:45.881Z,6.10
2018-03-20T00:30:20.319Z,7.37
2018-03-20T00:30:53.990Z,7.00
2018-03-20T00:31:27.681Z,6.82
2018-03-20T00:32:01.355Z,6.90
2018-03-20T00:32:35.789Z,7.37
2018-03-20T00:33:09.277Z,6.22
2018-03-20T00:33:42.979Z,6.87
2018-03-20T00:34:16.659Z,5.95
2018-03-20T00:34:50.319Z,7.35
2018-03-20T00:35:24.739Z,6.68
2018-03-20T00:35:58.418Z,6.90
2018-03-20T00:36:32.874Z,6.32
2018-03-20T00:37:06.552Z,6.82
2018-03-20T00:37:40.043Z,6.43
2018-03-20T00:38:13.721Z,5.90
2018-03-20T00:38:47.393Z,7.25
2018-03-20T00:39:21.055Z,6.82
2018-03-20T00:39:54.905Z,6.80
2018-03-20T00:40:28.584Z,6.25
2018-03-20T00:41:02.268Z,6.55
2018-03-20T00:41:35.953Z,6.25
2018-03-20T00:42:09.303Z,6.37
2018-03-20T00:42:43.751Z,6.70
2018-03-20T00:43:17.433Z,6.10
2018-03-20T00:43:51.121Z,6.53
2018-03-20T00:44:24.801Z,6.93
2018-03-20T00:44:58.479Z,6.35
2018-03-20T00:45:32.922Z,6.78
2018-03-20T00:46:06.587Z,6.65
2018-03-20T00:46:40.291Z,6.90
2018-03-20T00:47:13.965Z,5.85
2018-03-20T00:47:47.627Z,6.15
2018-03-20T00:48:21.305Z,6.45
2018-03-20T00:48:54.971Z,6.37
2018-03-20T00:49:28.643Z,6.22
2018-03-20T00:50:01.866Z,6.20
2018-03-20T00:50:35.552Z,5.62
2018-03-20T00:51:09.219Z,6.10
2018-03-20T00:51:42.915Z,6.65
2018-03-20T00:52:16.594Z,6.22
2018-03-20T00:52:50.263Z,5.30
2018-03-20T00:53:23.935Z,5.30
2018-03-20T00:53:57.597Z,6.05
2018-03-20T00:54:31.285Z,6.80
2018-03-20T00:55:04.631Z,6.12
2018-03-20T00:55:38.299Z,5.95
2018-03-20T00:56:11.785Z,5.70
2018-03-20T00:56:44.950Z,6.32
2018-03-20T00:57:18.438Z,6.35
2018-03-20T00:57:52.863Z,5.80
2018-03-20T00:58:26.738Z,6.18
2018-03-20T00:59:00.417Z,5.97
2018-03-20T00:59:34.097Z,6.50
2018-03-20T01:00:08.339Z,5.55
2018-03-20T01:00:42.007Z,5.60
2018-03-20T01:01:15.687Z,5.90
2018-03-20T01:01:50.159Z,5.78
2018-03-20T01:02:23.876Z,6.10
2018-03-20T01:02:58.319Z,6.15
2018-03-20T01:03:32.005Z,6.05
2018-03-20T01:04:05.001Z,5.12
2018-03-20T01:04:38.675Z,6.10
2018-03-20T01:05:12.364Z,6.15
2018-03-20T01:05:46.035Z,6.80
2018-03-20T01:06:19.707Z,6.30
2018-03-20T01:06:54.159Z,6.40
2018-03-20T01:07:27.829Z,5.85
2018-03-20T01:08:01.515Z,6.65
2018-03-20T01:08:35.194Z,5.87
2018-03-20T01:09:09.631Z,5.97
2018-03-20T01:09:43.301Z,7.10
2018-03-20T01:10:16.963Z,6.03
2018-03-20T01:10:50.642Z,5.95
2018-03-20T01:11:24.299Z,5.87
2018-03-20T01:11:57.987Z,6.00
2018-03-20T01:12:31.664Z,6.03
2018-03-20T01:13:05.322Z,6.22
2018-03-20T01:13:39.763Z,6.57
2018-03-20T01:14:14.027Z,5.82
2018-03-20T01:14:49.635Z,6.30
2018-03-20T01:15:23.436Z,5.80
2018-03-20T01:15:57.551Z,6.40
2018-03-20T01:16:32.885Z,6.53
2018-03-20T01:17:06.715Z,6.47
2018-03-20T01:17:40.429Z,6.20
2018-03-20T01:18:17.865Z,6.35
2018-03-20T01:18:51.813Z,6.28
2018-03-20T01:19:30.722Z,6.28
2018-03-20T01:20:07.871Z,5.87
2018-03-20T01:20:43.656Z,7.03
2018-03-20T01:21:23.374Z,6.20
2018-03-20T01:22:07.755Z,6.40
2018-03-20T01:22:51.269Z,6.10
2018-03-20T01:23:31.845Z,6.00
2018-03-20T01:24:13.435Z,6.30
2018-03-20T01:24:59.253Z,6.75
2018-03-20T01:25:40.153Z,6.47
2018-03-20T01:26:20.296Z,6.12
2018-03-20T01:26:59.876Z,6.05
2018-03-20T01:27:42.877Z,7.03
2018-03-20T01:28:24.945Z,6.37
2018-03-20T01:29:07.038Z,6.32
2018-03-20T01:29:49.858Z,6.53
2018-03-20T01:30:28.629Z,6.87
2018-03-20T01:31:11.431Z,6.10
2018-03-20T01:31:54.955Z,5.50
2018-03-20T01:32:39.314Z,6.72
2018-03-20T01:33:23.621Z,6.35
2018-03-20T01:34:08.084Z,6.40
2018-03-20T01:34:52.521Z,6.43
2018-03-20T01:35:37.219Z,7.10
2018-03-20T01:36:22.061Z,6.62
2018-03-20T01:37:07.361Z,6.70
2018-03-20T01:37:49.178Z,6.60
2018-03-20T01:38:34.592Z,6.93
2018-03-20T01:39:15.419Z,7.43
2018-03-20T01:39:56.249Z,7.05
2018-03-20T01:40:39.567Z,7.10
2018-03-20T01:41:23.172Z,6.28
2018-03-20T01:42:08.823Z,6.78
2018-03-20T01:42:52.647Z,6.20
2018-03-20T01:43:37.174Z,6.93
2018-03-20T01:44:22.455Z,6.85
2018-03-20T01:45:05.659Z,7.03
2018-03-20T01:45:50.853Z,6.47
2018-03-20T01:46:33.121Z,6.78
2018-03-20T01:47:18.251Z,6.35
2018-03-20T01:48:03.458Z,7.05
2018-03-20T01:48:52.390Z,6.87
2018-03-20T01:49:37.513Z,6.68
2018-03-20T01:50:22.256Z,7.80
2018-03-20T01:51:08.098Z,6.90
2018-03-20T01:51:49.976Z,7.43
2018-03-20T01:52:36.064Z,6.57
2018-03-20T01:53:23.754Z,6.70
2018-03-20T01:54:05.417Z,6.30
2018-03-20T01:54:46.497Z,7.15
2018-03-20T01:55:22.856Z,6.18
2018-03-20T01:56:00.083Z,7.10
2018-03-20T01:56:44.934Z,7.68
2018-03-20T01:57:30.759Z,6.00
2018-03-20T01:58:14.348Z,5.55
2018-03-20T01:58:57.862Z,6.57
2018-03-20T01:59:40.644Z,7.30
2018-03-20T02:00:20.104Z,7.00
2018-03-20T02:00:56.396Z,6.20
2018-03-20T02:01:34.551Z,6.40
2018-03-20T02:02:10.970Z,6.68
2018-03-20T02:02:49.374Z,6.25
2018-03-20T02:03:26.943Z,6.03
2018-03-20T02:04:09.782Z,6.62
2018-03-20T02:04:51.046Z,6.70
2018-03-20T02:05:31.584Z,6.32
2018-03-20T02:06:07.301Z,6.87
2018-03-20T02:06:45.427Z,6.75
2018-03-20T02:07:26.118Z,5.90
2018-03-20T02:08:09.730Z,6.68
2018-03-20T02:08:50.193Z,6.03
2018-03-20T02:09:32.175Z,6.70
2018-03-20T02:10:11.359Z,6.85
2018-03-20T02:10:48.692Z,6.85
2018-03-20T02:11:24.609Z,6.72
2018-03-20T02:12:05.056Z,6.70
2018-03-20T02:12:48.698Z,7.05
2018-03-20T02:13:31.107Z,6.80
2018-03-20T02:14:13.925Z,7.55
2018-03-20T02:14:52.340Z,6.05
2018-03-20T02:15:28.877Z,6.43
2018-03-20T02:16:08.518Z,7.78
2018-03-20T02:16:43.776Z,6.40
2018-03-20T02:17:21.056Z,6.80
2018-03-20T02:17:59.374Z,7.53
2018-03-20T02:18:38.655Z,6.50
2018-03-20T02:19:15.270Z,6.28
2018-03-20T02:19:51.738Z,6.78
2018-03-20T02:20:29.151Z,6.22
2018-03-20T02:21:05.268Z,7.32
2018-03-20T02:21:49.321Z,7.07
2018-03-20T02:22:34.704Z,6.82
2018-03-20T02:23:16.248Z,7.22
2018-03-20T02:24:02.018Z,6.62
2018-03-20T02:24:43.574Z,7.35
2018-03-20T02:25:21.887Z,6.43
2018-03-20T02:26:00.066Z,6.03
2018-03-20T02:26:43.212Z,6.05
2018-03-20T02:27:22.200Z,6.60
2018-03-20T02:27:59.032Z,6.32
2018-03-20T02:28:44.846Z,7.15
2018-03-20T02:29:30.024Z,6.55
2018-03-20T02:30:12.726Z,6.60
2018-03-20T02:30:56.259Z,6.12
2018-03-20T02:31:39.508Z,6.30
2018-03-20T02:32:18.461Z,7.55
2018-03-20T02:32:56.132Z,7.47
2018-03-20T02:33:35.060Z,7.28
2018-03-20T02:34:13.172Z,6.53
2018-03-20T02:34:55.235Z,5.87
2018-03-20T02:35:39.602Z,6.12
2018-03-20T02:36:20.856Z,6.90
2018-03-20T02:37:00.563Z,6.87
2018-03-20T02:37:40.680Z,6.95
2018-03-20T02:38:21.997Z,7.20
2018-03-20T02:39:04.804Z,6.43
2018-03-20T02:39:48.238Z,5.45
2018-03-20T02:40:29.686Z,6.40
2018-03-20T02:41:08.910Z,6.82
2018-03-20T02:41:51.885Z,6.78
2018-03-20T02:42:28.883Z,6.87
2018-03-20T02:43:09.368Z,6.18
2018-03-20T02:43:53.084Z,6.65
2018-03-20T02:44:37.262Z,6.70
2018-03-20T02:45:15.976Z,6.43
2018-03-20T02:45:55.677Z,6.43
2018-03-20T02:46:44.170Z,6.82
2018-03-20T02:47:19.786Z,7.10
2018-03-20T02:47:54.905Z,5.80
2018-03-20T02:48:30.056Z,6.90
2018-03-20T02:49:07.536Z,6.85
2018-03-20T02:49:48.228Z,7.00
2018-03-20T02:50:28.025Z,6.95
2018-03-20T02:51:07.956Z,5.60
2018-03-20T02:51:45.010Z,7.22
2018-03-20T02:52:21.152Z,7.12
2018-03-20T02:53:00.053Z,7.87
2018-03-20T02:53:38.563Z,7.82
2018-03-20T02:54:19.462Z,6.50
2018-03-20T02:54:56.869Z,6.90
2018-03-20T02:55:37.777Z,7.30
2018-03-20T02:56:18.038Z,7.03
2018-03-20T02:56:56.955Z,6.60
2018-03-20T02:57:34.472Z,7.25
2018-03-20T02:58:11.126Z,6.87
2018-03-20T02:58:49.026Z,7.80
2018-03-20T02:59:30.724Z,6.47
2018-03-20T03:00:05.396Z,6.90
2018-03-20T03:00:39.602Z,7.57
2018-03-20T03:01:14.758Z,6.78
2018-03-20T03:01:51.585Z,6.93
2018-03-20T03:02:25.341Z,8.02
2018-03-20T03:02:59.312Z,7.50
2018-03-20T03:03:34.349Z,6.60
2018-03-20T03:04:08.739Z,6.93
2018-03-20T03:04:44.117Z,7.62
2018-03-20T03:05:19.300Z,6.95
2018-03-20T03:05:54.204Z,8.50
2018-03-20T03:06:27.966Z,7.60
2018-03-20T03:07:04.064Z,7.43
2018-03-20T03:07:38.702Z,6.43
2018-03-20T03:08:12.392Z,7.62
2018-03-20T03:08:49.155Z,7.28
2018-03-20T03:09:22.888Z,8.25
2018-03-20T03:09:56.612Z,7.22
2018-03-20T03:10:30.970Z,7.50
2018-03-20T03:11:05.158Z,7.65
2018-03-20T03:11:39.920Z,8.00
2018-03-20T03:12:16.881Z,7.87
2018-03-20T03:12:51.944Z,8.40
2018-03-20T03:13:26.002Z,7.87
2018-03-20T03:13:59.798Z,7.85
2018-03-20T03:14:34.710Z,8.23
2018-03-20T03:15:08.574Z,7.70
2018-03-20T03:15:42.258Z,7.95
2018-03-20T03:16:17.046Z,7.30
2018-03-20T03:16:51.786Z,8.13
2018-03-20T03:17:26.436Z,9.10
2018-03-20T03:18:00.302Z,8.48
2018-03-20T03:18:34.844Z,8.25
2018-03-20T03:19:09.521Z,7.40
2018-03-20T03:19:43.230Z,7.55
2018-03-20T03:20:17.840Z,8.50
2018-03-20T03:20:51.621Z,8.02
2018-03-20T03:21:28.480Z,8.02
2018-03-20T03:22:06.280Z,8.18
2018-03-20T03:22:40.502Z,7.72
2018-03-20T03:23:16.768Z,8.10
2018-03-20T03:23:54.358Z,8.70
2018-03-20T03:24:34.532Z,8.43
2018-03-20T03:25:12.484Z,7.68
2018-03-20T03:25:53.106Z,7.68
2018-03-20T03:26:40.016Z,7.90
2018-03-20T03:27:18.822Z,8.38
2018-03-20T03:27:56.528Z,7.45
2018-03-20T03:28:32.990Z,8.80
2018-03-20T03:29:09.898Z,8.90
2018-03-20T03:29:45.040Z,8.10
2018-03-20T03:30:29.952Z,8.20
2018-03-20T03:31:12.389Z,8.73
2018-03-20T03:31:55.740Z,7.32
2018-03-20T03:32:38.313Z,7.80
2018-03-20T03:33:16.998Z,8.13
2018-03-20T03:33:58.370Z,8.75
2018-03-20T03:34:38.103Z,8.73
2018-03-20T03:35:20.942Z,8.43
2018-03-20T03:36:53.134Z,7.85
2018-03-20T04:06:42.557Z,6.18
2018-03-20T04:07:17.415Z,6.70
2018-03-20T04:07:51.120Z,7.22
2018-03-20T04:08:24.806Z,8.25
2018-03-20T04:08:58.533Z,8.07
2018-03-20T04:09:32.258Z,8.43
2018-03-20T04:10:06.318Z,8.93
2018-03-20T04:10:40.031Z,8.55
2018-03-20T04:11:13.796Z,8.25
2018-03-20T04:11:49.109Z,9.10
2018-03-20T04:12:24.085Z,8.48
2018-03-20T04:12:59.054Z,9.13
2018-03-20T04:13:34.606Z,9.98
2018-03-20T04:14:08.325Z,8.65
2018-03-20T04:14:42.025Z,9.80
2018-03-20T04:15:15.704Z,8.68
2018-03-20T04:15:49.439Z,9.02
2018-03-20T04:16:23.146Z,9.30
2018-03-20T04:16:57.994Z,8.82
2018-03-20T04:17:34.233Z,9.30
2018-03-20T04:18:11.698Z,8.90
2018-03-20T04:18:51.167Z,9.30
2018-03-20T04:19:30.735Z,8.50
2018-03-20T04:20:11.621Z,8.35
2018-03-20T04:20:47.247Z,8.20
2018-03-20T04:21:20.931Z,8.18
2018-03-20T04:21:56.803Z,9.85
2018-03-20T04:22:30.649Z,8.90
2018-03-20T04:23:14.814Z,8.63
2018-03-20T04:23:57.139Z,8.45
2018-03-20T04:24:37.118Z,8.68
2018-03-20T04:25:11.368Z,9.48
2018-03-20T04:25:45.285Z,8.57
2018-03-20T04:26:20.053Z,9.32
2018-03-20T04:26:56.190Z,8.80
2018-03-20T04:27:31.468Z,8.95
2018-03-20T04:28:07.390Z,8.85
2018-03-20T04:28:42.687Z,9.70
2018-03-20T04:29:18.861Z,8.45
2018-03-20T04:29:57.966Z,8.18
2018-03-20T04:30:40.097Z,9.20
2018-03-20T04:31:23.905Z,8.45
2018-03-20T04:32:08.818Z,8.30
2018-03-20T04:32:51.736Z,8.40
2018-03-20T04:33:27.530Z,8.43
2018-03-20T04:34:05.924Z,9.00
2018-03-20T04:34:40.081Z,9.02
2018-03-20T04:35:15.100Z,9.38
2018-03-20T04:35:49.301Z,9.10
2018-03-20T04:36:26.495Z,7.80
2018-03-20T04:37:02.201Z,9.15
2018-03-20T04:37:39.747Z,9.18
2018-03-20T04:38:18.893Z,8.88
2018-03-20T04:38:56.469Z,8.27
2018-03-20T04:39:31.054Z,8.90
2018-03-20T04:40:04.453Z,8.20
2018-03-20T04:40:38.144Z,9.85
2018-03-20T04:41:11.808Z,8.75
2018-03-20T04:41:45.487Z,9.32
2018-03-20T04:42:19.164Z,8.45
2018-03-20T04:42:52.840Z,9.23
2018-03-20T04:43:27.479Z,8.65
2018-03-20T04:44:01.141Z,9.52
2018-03-20T04:44:34.843Z,10.15
2018-03-20T04:45:08.529Z,8.85
2018-03-20T04:45:42.208Z,8.20
2018-03-20T04:46:15.893Z,10.48
2018-03-20T04:46:50.324Z,8.13
2018-03-20T04:47:24.041Z,9.20
2018-03-20T04:47:57.755Z,8.50
2018-03-20T04:48:31.426Z,8.43
2018-03-20T04:49:05.122Z,9.65
2018-03-20T04:49:38.799Z,9.30
2018-03-20T04:50:12.462Z,8.15
2018-03-20T04:50:46.145Z,8.75
2018-03-20T04:51:19.839Z,9.02
2018-03-20T04:51:53.510Z,9.52
2018-03-20T04:52:27.939Z,9.57
2018-03-20T04:53:01.922Z,9.25
2018-03-20T04:53:35.603Z,9.18
2018-03-20T04:54:10.041Z,9.77
2018-03-20T04:54:43.719Z,8.98
2018-03-20T04:55:17.408Z,9.15
2018-03-20T04:55:51.073Z,9.07
2018-03-20T04:56:25.518Z,8.38
2018-03-20T04:56:59.186Z,9.55
2018-03-20T04:57:32.877Z,9.82
2018-03-20T04:58:06.570Z,8.40
2018-03-20T04:58:40.249Z,9.30
2018-03-20T04:59:14.774Z,9.48
2018-03-20T04:59:49.212Z,9.25
2018-03-20T05:00:22.905Z,9.23
2018-03-20T05:00:56.577Z,9.40
2018-03-20T05:01:30.249Z,8.52
2018-03-20T05:02:03.936Z,9.23
2018-03-20T05:02:37.645Z,8.88
2018-03-20T05:03:11.617Z,8.88
2018-03-20T05:03:45.316Z,9.07
2018-03-20T05:04:18.985Z,9.23
2018-03-20T05:04:52.670Z,7.95
2018-03-20T05:05:27.114Z,8.38
2018-03-20T05:06:00.778Z,8.48
2018-03-20T05:06:35.217Z,8.88
2018-03-20T05:07:08.909Z,8.45
2018-03-20T05:07:42.579Z,8.80
2018-03-20T05:08:16.291Z,9.18
2018-03-20T05:08:49.992Z,8.88
2018-03-20T05:09:23.685Z,8.57
2018-03-20T05:09:57.365Z,8.00
2018-03-20T05:10:31.041Z,8.95
2018-03-20T05:11:04.751Z,8.45
2018-03-20T05:11:38.427Z,8.57
2018-03-20T05:12:12.139Z,8.70
2018-03-20T05:12:45.974Z,8.00
2018-03-20T05:13:20.452Z,8.77
2018-03-20T05:13:54.114Z,8.13
2018-03-20T05:14:27.772Z,8.02
2018-03-20T05:15:01.439Z,9.55
2018-03-20T05:15:35.686Z,8.40
2018-03-20T05:16:09.171Z,7.72
2018-03-20T05:16:42.667Z,8.85
2018-03-20T05:17:16.156Z,8.90
2018-03-20T05:17:56.134Z,8.98
2018-03-20T05:18:30.424Z,8.38
2018-03-20T05:19:20.583Z,8.25
2018-03-20T05:21:09.076Z,8.87
2018-03-20T05:21:48.333Z,9.35
2018-03-20T05:22:38.623Z,13.75
2018-03-20T05:24:24.963Z,9.30
2018-03-20T05:24:59.217Z,9.13
2018-03-20T05:25:32.725Z,10.45
2018-03-20T05:26:06.229Z,14.25
2018-03-20T05:26:40.504Z,10.63
2018-03-20T05:27:13.997Z,17.27
2018-03-20T05:27:47.671Z,16.08
2018-03-20T05:28:21.169Z,11.30
2018-03-20T05:28:54.744Z,11.98
2018-03-20T05:29:29.159Z,11.98
2018-03-20T05:30:02.669Z,11.65
2018-03-20T05:30:36.613Z,10.90
2018-03-20T05:31:10.112Z,10.98
2018-03-20T05:31:43.650Z,11.70
2018-03-20T05:32:17.152Z,12.18
2018-03-20T05:32:50.633Z,14.68
2018-03-20T05:33:24.139Z,12.68
2018-03-20T05:33:57.651Z,13.30
2018-03-20T05:34:31.179Z,10.95
2018-03-20T05:35:04.155Z,13.48
2018-03-20T05:35:37.327Z,17.48
2018-03-20T05:36:10.827Z,12.68
2018-03-20T05:36:44.333Z,12.10
2018-03-20T05:37:17.840Z,14.48
2018-03-20T05:37:51.030Z,12.07
2018-03-20T05:38:24.570Z,17.25
2018-03-20T05:38:59.027Z,13.75
2018-03-20T05:39:32.511Z,19.17
2018-03-20T05:40:06.009Z,12.80
2018-03-20T05:40:40.261Z,13.48
2018-03-20T05:41:13.765Z,11.32
2018-03-20T05:41:47.298Z,14.48
2018-03-20T05:42:20.953Z,12.75
2018-03-20T05:42:54.117Z,15.10
2018-03-20T05:43:27.643Z,15.82
2018-03-20T05:44:01.321Z,17.02
2018-03-20T05:44:34.814Z,13.70
2018-03-20T05:45:09.099Z,13.65
2018-03-20T05:45:42.589Z,14.23
2018-03-20T05:46:34.115Z,20.02
2018-03-20T05:48:34.329Z,13.40
2018-03-20T05:49:11.733Z,14.32
2018-03-20T05:49:50.213Z,11.50
2018-03-20T05:50:45.171Z,12.48
2018-03-20T05:52:11.813Z,11.38
2018-03-20T05:52:45.492Z,11.88
2018-03-20T05:53:19.171Z,12.07
2018-03-20T05:53:52.673Z,11.10
2018-03-20T05:54:26.381Z,11.48
2018-03-20T05:55:00.649Z,12.37
2018-03-20T05:55:34.147Z,11.38
2018-03-20T05:56:07.839Z,10.60
2018-03-20T05:56:41.531Z,13.10
2018-03-20T05:57:16.755Z,11.80
2018-03-20T05:57:50.697Z,12.15
2018-03-20T05:58:24.379Z,13.00
2018-03-20T05:58:58.065Z,11.68
2018-03-20T05:59:32.533Z,11.43
2018-03-20T06:00:06.207Z,12.10
2018-03-20T06:00:39.891Z,13.00
2018-03-20T06:01:13.081Z,11.63
2018-03-20T06:01:46.773Z,12.73
2018-03-20T06:02:20.475Z,12.35
2018-03-20T06:02:54.167Z,12.25
2018-03-20T06:03:27.835Z,11.80
2018-03-20T06:04:01.527Z,10.90
2018-03-20T06:04:35.268Z,11.95
2018-03-20T06:05:09.707Z,11.10
2018-03-20T06:05:43.385Z,12.07
2018-03-20T06:06:17.114Z,11.20
2018-03-20T06:06:51.707Z,11.82
2018-03-20T06:07:25.403Z,12.48
2018-03-20T06:07:59.097Z,10.65
2018-03-20T06:08:32.834Z,10.90
2018-03-20T06:09:07.295Z,10.38
2018-03-20T06:09:41.019Z,10.43
2018-03-20T06:10:15.477Z,11.23
2018-03-20T06:10:49.159Z,11.32
2018-03-20T06:11:22.855Z,10.80
2018-03-20T06:11:56.599Z,11.23
2018-03-20T06:12:30.291Z,10.07
2018-03-20T06:13:04.400Z,10.68
2018-03-20T06:13:38.863Z,10.45
2018-03-20T06:14:12.563Z,9.75
2018-03-20T06:14:46.321Z,11.65
2018-03-20T06:15:20.001Z,11.23
2018-03-20T06:15:53.519Z,11.27
2018-03-20T06:16:27.215Z,10.65
2018-03-20T06:17:00.905Z,11.60
2018-03-20T06:17:34.591Z,10.65
2018-03-20T06:18:08.287Z,11.07
2018-03-20T06:18:41.973Z,10.55
2018-03-20T06:19:15.656Z,10.27
2018-03-20T06:19:49.388Z,10.10
2018-03-20T06:20:23.841Z,11.73
2018-03-20T06:20:57.520Z,9.70
2018-03-20T06:21:31.195Z,9.07
2018-03-20T06:22:04.903Z,10.95
2018-03-20T06:22:38.615Z,10.05
2018-03-20T06:23:12.314Z,10.02
2018-03-20T06:23:46.019Z,10.77
2018-03-20T06:24:19.705Z,10.23
2018-03-20T06:24:53.422Z,9.20
2018-03-20T06:25:27.878Z,10.77
2018-03-20T06:26:01.571Z,10.30
2018-03-20T06:26:35.239Z,10.10
2018-03-20T06:27:08.919Z,10.50
2018-03-20T06:27:42.604Z,9.73
2018-03-20T06:28:16.418Z,11.10
2018-03-20T06:28:50.115Z,10.15
2018-03-20T06:29:23.797Z,10.20
2018-03-20T06:29:57.876Z,10.65
2018-03-20T06:30:31.565Z,10.25
2018-03-20T06:31:05.291Z,10.70
2018-03-20T06:31:38.981Z,9.98
2018-03-20T06:32:12.656Z,11.20
2018-03-20T06:32:46.341Z,10.50
2018-03-20T06:33:20.028Z,10.38
2018-03-20T06:33:53.719Z,11.25
2018-03-20T06:34:27.686Z,11.40
2018-03-20T06:35:02.189Z,10.75
2018-03-20T06:35:36.655Z,11.02
2018-03-20T06:36:10.343Z,12.15
2018-03-20T06:36:44.052Z,10.55
2018-03-20T06:37:17.741Z,11.38
2018-03-20T06:37:51.428Z,10.45
2018-03-20T06:38:25.931Z,10.52
2018-03-20T06:38:59.437Z,9.80
2018-03-20T06:39:33.110Z,10.63
2018-03-20T06:40:06.949Z,11.32
2018-03-20T06:40:40.645Z,11.82
2018-03-20T06:41:14.323Z,11.12
2018-03-20T06:41:48.794Z,10.40
2018-03-20T06:42:22.284Z,10.02
2018-03-20T06:42:55.969Z,11.55
2018-03-20T06:43:29.651Z,10.40
2018-03-20T06:44:03.339Z,9.38
2018-03-20T06:44:37.038Z,10.32
2018-03-20T06:45:10.747Z,10.15
2018-03-20T06:45:44.434Z,10.85
2018-03-20T06:46:18.096Z,9.13
2018-03-20T06:46:51.836Z,11.45
2018-03-20T06:47:26.276Z,11.77
2018-03-20T06:47:59.956Z,10.63
2018-03-20T06:48:33.648Z,10.15
2018-03-20T06:49:07.337Z,11.50
2018-03-20T06:49:41.020Z,11.80
2018-03-20T06:50:14.739Z,10.80
2018-03-20T06:50:48.427Z,11.35
2018-03-20T06:51:22.108Z,10.95
2018-03-20T06:51:55.783Z,10.35
2018-03-20T06:52:29.273Z,10.85
2018-03-20T06:53:02.945Z,10.95
2018-03-20T06:53:36.622Z,11.00
2018-03-20T06:54:11.062Z,10.98
2018-03-20T06:54:44.775Z,10.43
2018-03-20T06:55:18.473Z,9.63
2018-03-20T06:55:52.160Z,10.32
2018-03-20T06:56:25.863Z,10.95
2018-03-20T06:57:01.047Z,10.23
2018-03-20T06:57:34.749Z,10.02
2018-03-20T06:58:08.423Z,9.02
2018-03-20T06:58:42.440Z,10.20
2018-03-20T06:59:16.134Z,11.05
2018-03-20T06:59:49.818Z,11.65
2018-03-20T07:00:23.566Z,11.25
2018-03-20T07:00:57.872Z,15.45
2018-03-20T07:01:32.141Z,15.35
2018-03-20T07:02:05.620Z,14.60
2018-03-20T07:02:39.296Z,13.30
2018-03-20T07:03:12.981Z,12.57
2018-03-20T07:03:46.656Z,11.65
2018-03-20T07:04:20.363Z,13.85
2018-03-20T07:04:54.200Z,14.02
2018-03-20T07:05:28.893Z,12.50
2018-03-20T07:06:02.586Z,12.55
2018-03-20T07:06:36.315Z,13.65
2018-03-20T07:07:09.978Z,12.73
2018-03-20T07:07:44.432Z,12.93
2018-03-20T07:08:18.120Z,13.82
2018-03-20T07:08:51.790Z,13.23
2018-03-20T07:09:26.240Z,14.18
2018-03-20T07:09:59.931Z,13.30
2018-03-20T07:10:33.668Z,14.30
2018-03-20T07:11:08.123Z,13.75
2018-03-20T07:11:41.819Z,14.50
2018-03-20T07:12:15.504Z,15.35
2018-03-20T07:12:49.172Z,13.57
2018-03-20T07:13:22.839Z,13.93
2018-03-20T07:13:57.288Z,13.27
2018-03-20T07:14:30.972Z,13.75
2018-03-20T07:15:04.346Z,14.32
2018-03-20T07:15:38.052Z,13.70
2018-03-20T07:16:11.828Z,16.52
2018-03-20T07:16:45.532Z,14.52
2018-03-20T07:17:19.227Z,13.93
2018-03-20T07:17:52.915Z,13.43
2018-03-20T07:18:26.604Z,13.05
2018-03-20T07:19:00.290Z,12.40
2018-03-20T07:19:33.976Z,12.68
2018-03-20T07:20:07.488Z,12.40
2018-03-20T07:20:40.875Z,12.90
2018-03-20T07:21:14.561Z,13.13
2018-03-20T07:21:48.252Z,11.95
2018-03-20T07:22:21.936Z,12.50
2018-03-20T07:22:55.590Z,12.45
2018-03-20T07:23:29.286Z,12.98
2018-03-20T07:24:02.960Z,12.63
2018-03-20T07:24:36.680Z,12.15
2018-03-20T07:25:10.366Z,11.27
2018-03-20T07:25:44.080Z,12.65
2018-03-20T07:26:17.750Z,11.57
2018-03-20T07:26:51.452Z,12.70
2018-03-20T07:27:25.144Z,13.82
2018-03-20T07:27:58.872Z,13.68
2018-03-20T07:28:33.343Z,12.25
2018-03-20T07:29:07.219Z,13.15
2018-03-20T07:29:40.912Z,12.60
2018-03-20T07:30:14.587Z,14.18
2018-03-20T07:30:48.313Z,14.10
2018-03-20T07:31:22.021Z,13.00
2018-03-20T07:31:55.704Z,12.82
2018-03-20T07:32:29.394Z,12.27
2018-03-20T07:33:03.088Z,13.80
2018-03-20T07:33:36.812Z,14.18
2018-03-20T07:34:10.487Z,15.57
2018-03-20T07:34:44.934Z,13.27
2018-03-20T07:35:18.684Z,14.55
2018-03-20T07:35:53.175Z,15.23
2018-03-20T07:36:26.852Z,14.85
2018-03-20T07:37:00.528Z,12.93
2018-03-20T07:37:34.217Z,14.35
2018-03-20T07:38:07.900Z,15.00
2018-03-20T07:38:41.604Z,15.20
2018-03-20T07:39:15.282Z,14.38
2018-03-20T07:39:48.995Z,15.27
2018-03-20T07:40:22.506Z,16.40
2018-03-20T07:40:56.992Z,16.37
2018-03-20T07:41:30.655Z,16.98
2018-03-20T07:42:04.342Z,18.67
2018-03-20T07:42:38.042Z,15.52
2018-03-20T07:43:11.722Z,17.12
2018-03-20T07:43:45.428Z,14.87
2018-03-20T07:44:19.216Z,16.12
2018-03-20T07:44:52.902Z,14.70
2018-03-20T07:45:26.592Z,14.05
2018-03-20T07:46:00.308Z,12.82
2018-03-20T07:46:33.983Z,13.07
2018-03-20T07:47:07.732Z,12.37
2018-03-20T07:47:41.421Z,12.70
2018-03-20T07:48:15.090Z,13.10
2018-03-20T07:48:49.578Z,12.40
2018-03-20T07:49:23.244Z,13.20
2018-03-20T07:49:56.922Z,11.80
2018-03-20T07:50:30.612Z,12.60
2018-03-20T07:51:04.314Z,12.73
2018-03-20T07:51:37.990Z,12.15
2018-03-20T07:52:11.670Z,12.32
2018-03-20T07:52:45.426Z,11.80
2018-03-20T07:53:19.862Z,12.73
2018-03-20T07:53:53.546Z,13.73
2018-03-20T07:54:27.230Z,11.30
2018-03-20T07:55:00.900Z,11.90
2018-03-20T07:55:35.346Z,12.10
2018-03-20T07:56:09.004Z,11.95
2018-03-20T07:56:43.448Z,11.75
2018-03-20T07:57:17.153Z,11.60
2018-03-20T07:57:50.842Z,11.35
2018-03-20T07:58:24.532Z,10.60
2018-03-20T07:58:58.226Z,11.63
2018-03-20T07:59:31.902Z,9.85
2018-03-20T08:00:05.246Z,11.48
2018-03-20T08:00:39.686Z,10.95
2018-03-20T08:01:13.420Z,10.20
2018-03-20T08:01:47.102Z,12.10
2018-03-20T08:02:20.766Z,10.30
2018-03-20T08:02:54.430Z,9.98
2018-03-20T08:03:28.102Z,9.48
2018-03-20T08:04:02.545Z,9.38
2018-03-20T08:04:36.432Z,9.30
2018-03-20T08:05:10.097Z,9.23
2018-03-20T08:05:43.798Z,10.02
2018-03-20T08:06:17.656Z,8.88
2018-03-20T08:06:51.332Z,9.10
2018-03-20T08:07:24.991Z,8.13
2018-03-20T08:07:58.668Z,8.35
2018-03-20T08:08:32.344Z,8.80
2018-03-20T08:09:05.692Z,8.10
2018-03-20T08:09:39.355Z,7.85
2018-03-20T08:10:13.022Z,8.88
2018-03-20T08:10:46.699Z,8.55
2018-03-20T08:11:20.381Z,8.02
2018-03-20T08:11:54.052Z,8.50
2018-03-20T08:12:27.759Z,8.35
2018-03-20T08:13:02.208Z,7.28
2018-03-20T08:13:35.887Z,7.87
2018-03-20T08:14:09.552Z,8.23
2018-03-20T08:14:43.211Z,8.00
2018-03-20T08:15:16.889Z,6.60
2018-03-20T08:15:50.560Z,6.37
2018-03-20T08:16:24.252Z,6.37
2018-03-20T08:16:57.920Z,6.80
2018-03-20T08:17:31.590Z,6.97
2018-03-20T08:18:04.954Z,5.75
2018-03-20T08:18:39.375Z,6.05
2018-03-20T08:19:13.808Z,6.15
2018-03-20T08:19:47.466Z,4.97
2018-03-20T08:20:21.879Z,4.70
2018-03-20T08:20:56.308Z,6.10
2018-03-20T08:21:30.285Z,5.82
2018-03-20T08:22:03.971Z,5.40
2018-03-20T08:22:38.576Z,5.07
2018-03-20T08:23:13.010Z,4.82
2018-03-20T08:23:46.674Z,4.90
2018-03-20T08:24:21.105Z,5.15